createdAt,value
2022-12-08T00:00:30.210Z,7.00
2022-12-08T00:02:02.287Z,6.90
2022-12-08T00:03:34.927Z,7.70
2022-12-08T00:05:25.847Z,6.80
2022-12-08T00:07:16.867Z,5.70
2022-12-08T00:09:07.839Z,6.40
2022-12-08T00:10:49.741Z,7.00
2022-12-08T00:12:23.446Z,8.50
2022-12-08T00:13:55.594Z,7.40
2022-12-08T00:15:28.954Z,8.20
2022-12-08T00:17:01.822Z,8.50
2022-12-08T00:18:33.840Z,9.50
2022-12-08T00:20:07.061Z,9.60
2022-12-08T00:21:39.165Z,9.80
2022-12-08T00:23:10.937Z,10.20
2022-12-08T00:24:45.637Z,10.60
2022-12-08T00:26:17.460Z,9.90
2022-12-08T00:27:49.206Z,9.80
2022-12-08T00:29:21.271Z,8.20
2022-12-08T00:30:52.999Z,10.30
2022-12-08T00:32:24.753Z,8.70
2022-12-08T00:33:56.775Z,9.30
2022-12-08T00:35:28.557Z,8.20
2022-12-08T00:37:00.917Z,7.60
2022-12-08T00:38:32.894Z,8.90
2022-12-08T00:40:06.307Z,9.30
2022-12-08T00:41:58.209Z,9.60
2022-12-08T00:43:30.135Z,9.60
2022-12-08T00:45:01.988Z,7.60
2022-12-08T00:46:34.062Z,8.70
2022-12-08T00:48:09.474Z,9.20
2022-12-08T00:49:41.504Z,10.10
2022-12-08T00:51:13.257Z,6.60
2022-12-08T00:52:45.019Z,8.40
2022-12-08T00:54:18.313Z,11.00
2022-12-08T00:55:50.090Z,9.00
2022-12-08T00:57:21.932Z,9.70
2022-12-08T00:58:53.802Z,10.00
2022-12-08T01:00:25.732Z,10.50
2022-12-08T01:01:57.707Z,9.60
2022-12-08T01:03:29.489Z,9.40
2022-12-08T01:05:01.456Z,9.30
2022-12-08T01:06:36.561Z,10.00
2022-12-08T01:08:09.301Z,9.50
2022-12-08T01:09:43.337Z,9.70
2022-12-08T01:11:26.061Z,8.60
2022-12-08T01:12:58.930Z,7.50
2022-12-08T01:14:30.634Z,8.70
2022-12-08T01:16:02.553Z,10.60
2022-12-08T01:17:34.478Z,9.90
2022-12-08T01:19:06.501Z,9.90
2022-12-08T01:20:38.395Z,10.30
2022-12-08T01:22:10.961Z,9.00
2022-12-08T01:23:42.801Z,9.20
2022-12-08T01:25:15.048Z,10.40
2022-12-08T01:26:49.806Z,7.70
2022-12-08T01:28:22.467Z,8.80
2022-12-08T01:29:55.686Z,9.60
2022-12-08T01:31:30.064Z,7.80
2022-12-08T01:33:02.089Z,9.00
2022-12-08T01:34:33.888Z,8.70
2022-12-08T01:36:07.039Z,8.50
2022-12-08T01:37:40.175Z,8.00
2022-12-08T01:39:18.781Z,8.40
2022-12-08T01:40:51.886Z,8.60
2022-12-08T01:42:24.870Z,8.90
2022-12-08T01:44:08.284Z,8.10
2022-12-08T01:45:40.183Z,8.50
2022-12-08T01:47:12.723Z,7.50
2022-12-08T01:48:44.467Z,8.60
2022-12-08T01:50:19.905Z,6.40
2022-12-08T01:52:14.239Z,6.70
2022-12-08T01:53:48.715Z,6.00
2022-12-08T01:55:26.407Z,8.00
2022-12-08T01:57:09.755Z,8.20
2022-12-08T01:58:47.978Z,10.00
2022-12-08T02:00:22.782Z,10.20
2022-12-08T02:01:54.905Z,8.60
2022-12-08T02:03:40.841Z,7.20
2022-12-08T02:05:13.836Z,8.30
2022-12-08T02:06:48.661Z,6.70
2022-12-08T02:08:21.975Z,11.30
2022-12-08T02:09:55.158Z,8.90
2022-12-08T02:11:27.044Z,8.40
2022-12-08T02:13:00.406Z,7.70
2022-12-08T02:14:32.359Z,8.00
2022-12-08T02:16:17.673Z,9.60
2022-12-08T02:18:11.826Z,8.40
2022-12-08T02:20:21.199Z,6.20
2022-12-08T02:22:17.244Z,10.50
2022-12-08T02:24:17.999Z,8.30
2022-12-08T02:26:07.774Z,6.10
2022-12-08T02:28:41.198Z,10.80
2022-12-08T02:30:18.914Z,10.10
2022-12-08T02:32:05.880Z,10.60
2022-12-08T02:34:11.911Z,10.70
2022-12-08T02:36:15.165Z,9.10
2022-12-08T02:38:31.712Z,9.40
2022-12-08T02:40:43.800Z,10.70
2022-12-08T02:42:37.058Z,12.00
2022-12-08T02:44:17.395Z,8.00
2022-12-08T02:46:01.202Z,10.90
2022-12-08T02:47:34.619Z,10.10
2022-12-08T02:49:07.899Z,10.30
2022-12-08T02:50:39.962Z,11.80
2022-12-08T02:52:11.635Z,10.30
2022-12-08T02:53:44.546Z,11.40
2022-12-08T02:55:28.987Z,10.90
2022-12-08T02:57:16.162Z,9.70
2022-12-08T02:59:12.099Z,12.00
2022-12-08T03:00:57.325Z,10.40
2022-12-08T03:02:41.235Z,10.70
2022-12-08T03:04:43.766Z,7.50
2022-12-08T03:06:44.482Z,8.20
2022-12-08T03:08:18.997Z,9.60
2022-12-08T03:10:13.557Z,10.70
2022-12-08T03:12:10.605Z,10.00
2022-12-08T03:13:50.304Z,10.50
2022-12-08T03:15:22.664Z,9.10
2022-12-08T03:16:59.978Z,11.60
2022-12-08T03:18:39.351Z,10.80
2022-12-08T03:20:18.442Z,9.70
2022-12-08T03:21:54.458Z,12.30
2022-12-08T03:23:26.867Z,11.40
2022-12-08T03:25:00.661Z,10.10
2022-12-08T03:26:57.738Z,11.40
2022-12-08T03:28:29.866Z,10.10
2022-12-08T03:30:02.751Z,7.30
2022-12-08T03:31:44.684Z,11.90
2022-12-08T03:33:27.300Z,13.40
2022-12-08T03:35:05.797Z,8.50
2022-12-08T03:36:38.732Z,8.50
2022-12-08T03:38:15.700Z,13.10
2022-12-08T03:39:47.967Z,13.50
2022-12-08T03:41:24.386Z,9.30
2022-12-08T03:42:57.168Z,12.60
2022-12-08T03:44:28.958Z,13.00
2022-12-08T03:46:00.881Z,9.00
2022-12-08T03:47:32.821Z,11.60
2022-12-08T03:49:04.703Z,12.60
2022-12-08T03:50:36.402Z,12.10
2022-12-08T03:52:08.135Z,10.50
2022-12-08T03:53:40.238Z,11.90
2022-12-08T03:55:12.062Z,13.60
2022-12-08T03:56:43.921Z,9.70
2022-12-08T03:58:15.625Z,12.60
2022-12-08T03:59:47.486Z,9.90
2022-12-08T04:01:19.675Z,12.30
2022-12-08T04:02:51.648Z,11.20
2022-12-08T04:04:23.486Z,12.40
2022-12-08T04:05:55.287Z,9.60
2022-12-08T04:07:27.113Z,12.10
2022-12-08T04:09:00.071Z,9.80
2022-12-08T04:10:32.143Z,13.30
2022-12-08T04:12:04.373Z,10.70
2022-12-08T04:13:39.350Z,12.10
2022-12-08T04:15:16.070Z,10.50
2022-12-08T04:16:48.383Z,10.00
2022-12-08T04:18:20.166Z,9.90
2022-12-08T04:19:52.011Z,11.20
2022-12-08T04:21:23.849Z,7.30
2022-12-08T04:22:55.879Z,10.70
2022-12-08T04:24:27.997Z,11.10
2022-12-08T04:26:00.053Z,11.00
2022-12-08T04:27:31.947Z,10.40
2022-12-08T04:29:04.453Z,10.40
2022-12-08T04:30:36.919Z,11.00
2022-12-08T04:32:08.875Z,9.80
2022-12-08T04:33:55.365Z,8.60
2022-12-08T04:35:35.516Z,11.90
2022-12-08T04:37:11.063Z,9.70
2022-12-08T04:38:47.639Z,11.00
2022-12-08T04:40:22.537Z,8.90
2022-12-08T04:41:56.494Z,11.00
2022-12-08T04:43:28.531Z,10.60
2022-12-08T04:45:00.196Z,10.10
2022-12-08T04:46:32.097Z,9.80
2022-12-08T04:48:04.545Z,9.90
2022-12-08T04:49:36.252Z,9.80
2022-12-08T04:51:19.026Z,12.40
2022-12-08T04:52:51.159Z,7.60
2022-12-08T04:54:22.921Z,10.60
2022-12-08T04:55:55.408Z,11.10
2022-12-08T04:57:27.388Z,9.40
2022-12-08T04:58:59.217Z,7.70
2022-12-08T05:00:31.005Z,9.40
2022-12-08T05:02:02.980Z,8.00
2022-12-08T05:03:34.910Z,9.00
2022-12-08T05:05:07.295Z,11.40
2022-12-08T05:06:38.984Z,8.90
2022-12-08T05:08:11.576Z,11.70
2022-12-08T05:09:44.116Z,10.30
2022-12-08T05:11:15.954Z,10.80
2022-12-08T05:12:47.716Z,10.70
2022-12-08T05:14:20.247Z,10.00
2022-12-08T05:15:52.027Z,9.50
2022-12-08T05:17:23.914Z,9.90
2022-12-08T05:18:55.611Z,9.50
2022-12-08T05:20:28.150Z,9.70
2022-12-08T05:21:59.942Z,9.50
2022-12-08T05:23:31.992Z,10.20
2022-12-08T05:25:04.101Z,6.90
2022-12-08T05:26:35.990Z,6.00
2022-12-08T05:28:39.754Z,8.50
2022-12-08T05:29:59.466Z,7.10
2022-12-08T05:31:31.635Z,8.70
2022-12-08T05:33:03.616Z,8.60
2022-12-08T05:34:35.446Z,9.20
2022-12-08T05:36:08.923Z,8.70
2022-12-08T05:37:40.704Z,9.70
2022-12-08T05:39:14.321Z,10.00
2022-12-08T05:40:47.058Z,8.70
2022-12-08T05:42:24.364Z,8.10
2022-12-08T05:43:56.616Z,8.80
2022-12-08T05:45:28.530Z,8.20
2022-12-08T05:47:00.624Z,9.50
2022-12-08T05:48:33.247Z,8.60
2022-12-08T05:50:07.034Z,9.50
2022-12-08T05:51:38.999Z,8.30
2022-12-08T05:53:10.724Z,11.40
2022-12-08T05:54:42.431Z,9.60
2022-12-08T05:56:14.279Z,8.10
2022-12-08T05:57:45.953Z,9.00
2022-12-08T05:59:17.756Z,10.30
2022-12-08T06:00:50.652Z,10.30
2022-12-08T06:02:22.579Z,12.10
2022-12-08T06:03:55.861Z,11.70
2022-12-08T06:05:27.661Z,10.30
2022-12-08T06:07:00.076Z,11.80
2022-12-08T06:08:32.841Z,9.40
2022-12-08T06:10:06.751Z,10.80
2022-12-08T06:11:38.705Z,9.10
2022-12-08T06:13:11.296Z,9.90
2022-12-08T06:14:43.193Z,10.70
2022-12-08T06:16:15.362Z,9.10
2022-12-08T06:17:47.100Z,10.40
2022-12-08T06:19:19.129Z,9.10
2022-12-08T06:20:50.900Z,10.90
2022-12-08T06:22:22.864Z,10.40
2022-12-08T06:23:55.443Z,10.50
2022-12-08T06:25:27.299Z,9.90
2022-12-08T06:26:59.011Z,9.90
2022-12-08T06:28:32.778Z,8.20
2022-12-08T06:30:05.952Z,9.20
2022-12-08T06:31:38.286Z,6.80
2022-12-08T06:33:10.116Z,9.40
2022-12-08T06:34:41.929Z,8.10
2022-12-08T06:36:16.041Z,7.40
2022-12-08T06:37:47.800Z,9.30
2022-12-08T06:39:19.589Z,8.30
2022-12-08T06:40:57.357Z,7.80
2022-12-08T06:42:44.114Z,6.00
2022-12-08T06:44:15.923Z,6.00
2022-12-08T06:45:50.203Z,5.70
2022-12-08T06:47:26.186Z,5.80
2022-12-08T06:48:58.963Z,5.00
2022-12-08T06:50:30.997Z,5.90
2022-12-08T06:52:02.807Z,5.40
2022-12-08T06:53:34.812Z,5.30
2022-12-08T06:55:08.199Z,5.10
2022-12-08T06:56:39.934Z,5.50
2022-12-08T06:58:13.253Z,6.70
2022-12-08T06:59:45.231Z,5.50
2022-12-08T07:01:16.983Z,5.60
2022-12-08T07:02:49.129Z,6.80
2022-12-08T07:04:20.963Z,5.90
2022-12-08T07:06:03.279Z,7.40
2022-12-08T07:07:35.711Z,7.40
2022-12-08T07:09:07.581Z,8.20
2022-12-08T07:10:39.367Z,6.60
2022-12-08T07:12:11.182Z,6.80
2022-12-08T07:13:42.917Z,7.40
2022-12-08T07:15:14.733Z,8.60
2022-12-08T07:16:46.542Z,5.90
2022-12-08T07:18:18.293Z,5.90
2022-12-08T07:19:50.076Z,6.20
2022-12-08T07:21:21.803Z,8.70
2022-12-08T07:22:54.286Z,7.80
2022-12-08T07:24:26.270Z,7.90
2022-12-08T07:26:02.488Z,10.30
2022-12-08T07:27:34.216Z,7.70
2022-12-08T07:29:06.009Z,8.00
2022-12-08T07:30:39.287Z,8.20
2022-12-08T07:32:11.222Z,7.10
2022-12-08T07:33:43.276Z,4.40
2022-12-08T07:35:15.142Z,8.00
2022-12-08T07:36:46.879Z,6.80
2022-12-08T07:38:18.683Z,5.70
2022-12-08T07:39:51.163Z,6.60
2022-12-08T07:41:26.036Z,6.40
2022-12-08T07:42:58.046Z,7.20
2022-12-08T07:44:31.314Z,4.70
2022-12-08T07:46:03.175Z,6.90
2022-12-08T07:47:35.761Z,7.10
2022-12-08T07:49:07.479Z,6.20
2022-12-08T07:50:39.744Z,7.00
2022-12-08T07:52:44.612Z,7.90
2022-12-08T07:54:18.712Z,7.70
2022-12-08T07:55:50.706Z,8.30
2022-12-08T07:57:22.679Z,6.70
2022-12-08T07:58:57.866Z,8.50
2022-12-08T08:00:29.777Z,7.40
2022-12-08T08:02:22.916Z,6.70
2022-12-08T08:03:57.487Z,8.00
2022-12-08T08:05:33.524Z,9.40
2022-12-08T08:07:05.356Z,9.60
2022-12-08T08:08:37.846Z,8.60
2022-12-08T08:10:11.715Z,8.00
2022-12-08T08:11:55.919Z,9.40
2022-12-08T08:13:37.338Z,7.80
2022-12-08T08:15:10.770Z,7.20
2022-12-08T08:16:46.873Z,7.10
2022-12-08T08:18:18.989Z,6.90
2022-12-08T08:19:52.781Z,7.30
2022-12-08T08:23:17.565Z,6.60
2022-12-08T08:24:49.701Z,8.80
2022-12-08T08:26:21.882Z,8.40
2022-12-08T08:27:55.249Z,9.90
2022-12-08T08:29:27.835Z,8.60
2022-12-08T08:31:01.126Z,9.70
2022-12-08T08:32:35.319Z,7.60
2022-12-08T08:34:07.369Z,6.80
2022-12-08T08:35:39.890Z,8.70
2022-12-08T08:37:11.946Z,7.10
2022-12-08T08:38:44.663Z,7.50
2022-12-08T08:40:18.185Z,8.90
2022-12-08T08:41:50.266Z,6.80
2022-12-08T08:43:37.851Z,8.80
2022-12-08T08:45:11.187Z,9.80
2022-12-08T08:46:43.376Z,7.20
2022-12-08T08:48:15.473Z,5.10
2022-12-08T08:49:47.568Z,5.40
2022-12-08T08:51:20.019Z,5.80
2022-12-08T08:52:53.575Z,5.10
2022-12-08T08:54:25.724Z,6.30
2022-12-08T08:55:57.697Z,6.40
2022-12-08T08:57:29.902Z,5.10
2022-12-08T08:59:03.092Z,5.50
2022-12-08T09:00:35.332Z,5.00
2022-12-08T09:02:07.423Z,5.50
2022-12-08T09:03:39.449Z,5.20
2022-12-08T09:05:11.427Z,7.00
2022-12-08T09:06:45.383Z,6.60
2022-12-08T09:08:17.668Z,5.10
2022-12-08T09:09:49.834Z,6.00
2022-12-08T09:11:35.438Z,6.30
2022-12-08T09:13:09.271Z,5.60
2022-12-08T09:14:41.349Z,6.30
2022-12-08T09:16:13.535Z,4.90
2022-12-08T09:17:45.721Z,5.50
2022-12-08T09:19:19.968Z,6.20
2022-12-08T09:20:54.201Z,6.50
2022-12-08T09:22:27.230Z,5.50
2022-12-08T09:24:00.447Z,5.10
2022-12-08T09:25:32.351Z,5.80
2022-12-08T09:27:05.319Z,6.60
2022-12-08T09:28:38.608Z,6.40
2022-12-08T09:30:10.754Z,4.40
2022-12-08T09:31:43.050Z,5.60
2022-12-08T09:33:15.003Z,6.00
2022-12-08T09:34:52.025Z,5.00
2022-12-08T09:36:24.821Z,4.90
2022-12-08T09:38:00.585Z,6.70
2022-12-08T09:39:32.500Z,5.80
2022-12-08T09:41:53.211Z,5.90
2022-12-08T09:44:00.651Z,5.10
2022-12-08T09:45:35.739Z,5.50
2022-12-08T09:47:32.075Z,4.20
2022-12-08T09:49:16.235Z,4.00
2022-12-08T09:53:44.235Z,5.50
2022-12-08T09:55:25.142Z,5.50
2022-12-08T09:57:03.743Z,6.30
2022-12-08T09:58:53.822Z,6.60
2022-12-08T10:00:26.112Z,5.80
2022-12-08T10:01:58.314Z,6.30
2022-12-08T10:03:31.571Z,5.10
2022-12-08T10:05:03.945Z,6.30
2022-12-08T10:07:07.415Z,7.00
2022-12-08T10:08:52.171Z,7.20
2022-12-08T10:10:45.127Z,5.50
2022-12-08T10:12:46.025Z,6.00
2022-12-08T10:14:40.923Z,7.40
2022-12-08T10:16:35.816Z,4.50
2022-12-08T10:18:23.292Z,4.20
2022-12-08T10:20:15.163Z,8.00
2022-12-08T10:21:47.698Z,7.90
2022-12-08T10:23:29.036Z,6.60
2022-12-08T10:25:13.704Z,5.50
2022-12-08T10:26:49.386Z,8.70
2022-12-08T10:28:21.165Z,7.40
2022-12-08T10:29:53.309Z,7.20
2022-12-08T10:31:25.848Z,7.40
2022-12-08T10:32:58.155Z,7.80
2022-12-08T10:40:16.447Z,9.50
2022-12-08T10:41:49.102Z,8.60
2022-12-08T10:43:25.274Z,9.70
2022-12-08T10:45:08.786Z,7.50
2022-12-08T10:46:40.674Z,8.20
2022-12-08T10:48:21.244Z,11.00
2022-12-08T10:50:41.436Z,9.00
2022-12-08T10:52:25.491Z,7.70
2022-12-08T10:53:57.827Z,8.90
2022-12-08T10:55:41.923Z,7.60
2022-12-08T10:59:13.055Z,9.40
2022-12-08T11:00:44.297Z,8.20
2022-12-08T11:02:26.196Z,7.90
2022-12-08T11:04:03.523Z,7.60
2022-12-08T11:05:35.920Z,7.80
2022-12-08T11:07:11.002Z,8.10
2022-12-08T11:08:56.535Z,7.60
2022-12-08T11:10:36.512Z,6.90
2022-12-08T11:12:22.085Z,7.30
2022-12-08T11:13:53.313Z,6.00
2022-12-08T11:15:24.969Z,7.20
2022-12-08T11:17:26.065Z,7.90
2022-12-08T11:18:58.021Z,7.80
2022-12-08T11:20:43.146Z,9.50
2022-12-08T11:22:33.570Z,7.70
2022-12-08T11:24:32.258Z,8.30
2022-12-08T11:26:22.491Z,5.90
2022-12-08T11:27:58.890Z,7.60
2022-12-08T11:29:35.064Z,9.40
2022-12-08T11:31:37.389Z,8.30
2022-12-08T11:33:19.335Z,6.90
2022-12-08T11:35:05.814Z,8.70
2022-12-08T11:36:38.519Z,7.60
2022-12-08T11:38:23.758Z,7.90
2022-12-08T11:39:59.975Z,8.10
2022-12-08T11:41:38.729Z,7.10
2022-12-08T11:43:40.253Z,7.00
2022-12-08T11:45:19.582Z,7.20
2022-12-08T11:47:06.065Z,8.90
2022-12-08T11:49:05.894Z,9.70
2022-12-08T11:50:52.311Z,9.00
2022-12-08T11:52:41.409Z,8.80
2022-12-08T11:54:26.847Z,7.10
2022-12-08T11:56:06.509Z,7.00
2022-12-08T11:57:37.678Z,6.60
2022-12-08T11:59:37.706Z,8.80
2022-12-08T12:01:24.869Z,8.10
2022-12-08T12:03:14.874Z,5.60
2022-12-08T12:04:54.148Z,7.30
2022-12-08T12:06:56.789Z,7.90
2022-12-08T12:09:12.928Z,6.00
2022-12-08T12:11:51.336Z,6.90
2022-12-08T12:13:31.381Z,7.90
2022-12-08T12:15:39.803Z,8.60
2022-12-08T12:17:35.849Z,8.80
2022-12-08T12:19:17.136Z,8.20
2022-12-08T12:20:53.677Z,9.20
2022-12-08T12:24:39.695Z,7.40
2022-12-08T12:26:31.049Z,5.30
2022-12-08T12:28:08.614Z,8.20
2022-12-08T12:29:56.113Z,6.90
2022-12-08T12:31:40.744Z,7.80
2022-12-08T12:33:17.118Z,7.90
2022-12-08T12:34:55.510Z,5.90
2022-12-08T12:36:26.734Z,7.60
2022-12-08T12:38:32.620Z,5.10
2022-12-08T12:40:17.622Z,5.90
2022-12-08T12:41:57.429Z,6.20
2022-12-08T12:43:37.571Z,7.10
2022-12-08T12:45:28.567Z,8.00
2022-12-08T12:47:06.872Z,7.50
2022-12-08T12:48:37.952Z,7.00
2022-12-08T12:50:09.422Z,7.70
2022-12-08T12:51:47.617Z,6.70
2022-12-08T12:53:18.765Z,7.10
2022-12-08T12:54:49.767Z,6.80
2022-12-08T12:56:51.278Z,8.30
2022-12-08T12:58:28.494Z,7.90
2022-12-08T12:59:59.559Z,7.80
2022-12-08T13:04:30.457Z,7.10
2022-12-08T13:06:03.660Z,8.50
2022-12-08T13:08:02.535Z,6.20
2022-12-08T13:09:39.044Z,7.50
2022-12-08T13:11:11.142Z,10.20
2022-12-08T13:12:45.472Z,10.70
2022-12-08T13:14:32.014Z,9.80
2022-12-08T13:16:18.480Z,9.80
2022-12-08T13:17:50.586Z,10.60
2022-12-08T13:19:21.964Z,10.30
2022-12-08T13:21:03.119Z,11.00
2022-12-08T13:23:04.955Z,6.00
2022-12-08T13:24:36.132Z,8.90
2022-12-08T13:26:26.815Z,7.50
2022-12-08T13:28:23.451Z,9.70
2022-12-08T13:30:38.497Z,9.60
2022-12-08T13:32:14.991Z,11.50
2022-12-08T13:33:47.835Z,10.70
2022-12-08T13:35:19.708Z,11.90
2022-12-08T13:37:53.989Z,11.20
2022-12-08T13:39:40.432Z,9.20
2022-12-08T13:41:23.736Z,9.70
2022-12-08T13:43:47.298Z,10.30
2022-12-08T13:46:04.341Z,8.80
2022-12-08T13:47:34.447Z,9.00
2022-12-08T13:53:22.476Z,7.80
2022-12-08T13:57:47.039Z,8.90
2022-12-08T13:59:18.452Z,9.50
2022-12-08T14:01:03.437Z,8.60
2022-12-08T14:02:47.850Z,6.40
2022-12-08T14:04:47.861Z,6.90
2022-12-08T14:06:18.534Z,5.40
2022-12-08T14:07:54.469Z,8.40
2022-12-08T14:09:34.151Z,5.90
2022-12-08T14:23:21.861Z,10.20
2022-12-08T14:24:54.664Z,8.20
2022-12-08T14:26:26.596Z,7.90
2022-12-08T14:30:55.644Z,6.10
2022-12-08T14:32:37.059Z,7.60
2022-12-08T14:34:19.366Z,9.00
2022-12-08T14:35:56.031Z,8.30
2022-12-08T14:37:37.700Z,6.80
2022-12-08T14:39:11.096Z,7.30
2022-12-08T14:41:03.752Z,7.70
2022-12-08T14:43:09.244Z,5.70
2022-12-08T14:44:41.321Z,6.20
2022-12-08T14:46:23.223Z,7.70
2022-12-08T14:47:56.478Z,7.70
2022-12-08T14:49:57.060Z,6.30
2022-12-08T14:51:33.767Z,6.20
2022-12-08T14:53:16.509Z,6.60
2022-12-08T14:54:56.311Z,6.90
2022-12-08T14:57:03.018Z,7.70
2022-12-08T14:58:35.539Z,7.00
2022-12-08T15:00:11.857Z,7.10
2022-12-08T15:01:46.899Z,8.60
2022-12-08T15:03:23.367Z,7.30
2022-12-08T15:05:07.182Z,8.30
2022-12-08T15:07:00.754Z,8.20
2022-12-08T15:08:36.991Z,7.00
2022-12-08T15:10:16.415Z,7.50
2022-12-08T15:12:06.848Z,9.90
2022-12-08T15:13:51.902Z,7.60
2022-12-08T15:15:23.948Z,6.50
2022-12-08T15:16:56.476Z,8.50
2022-12-08T15:18:41.136Z,7.20
2022-12-08T15:20:44.279Z,9.40
2022-12-08T15:22:24.228Z,6.90
2022-12-08T15:23:57.352Z,7.10
2022-12-08T15:25:33.913Z,6.30
2022-12-08T15:27:09.025Z,7.60
2022-12-08T15:28:40.898Z,6.70
2022-12-08T15:30:17.946Z,6.00
2022-12-08T15:31:53.575Z,7.30
2022-12-08T15:33:26.575Z,7.70
2022-12-08T15:34:59.312Z,7.80
2022-12-08T15:36:31.321Z,9.20
2022-12-08T15:38:06.280Z,9.30
2022-12-08T15:39:40.027Z,6.00
2022-12-08T15:41:15.218Z,7.40
2022-12-08T15:42:55.239Z,7.80
2022-12-08T15:44:38.200Z,7.60
2022-12-08T15:46:10.322Z,7.70
2022-12-08T15:47:45.189Z,8.10
2022-12-08T15:49:22.031Z,9.30
2022-12-08T15:50:55.702Z,7.10
2022-12-08T15:52:27.947Z,7.90
2022-12-08T15:53:59.948Z,8.50
2022-12-08T15:55:38.485Z,8.60
2022-12-08T16:00:24.372Z,7.20
2022-12-08T16:02:03.458Z,8.00
2022-12-08T16:05:44.754Z,7.90
2022-12-08T16:07:37.976Z,8.20
2022-12-08T16:09:40.946Z,8.10
2022-12-08T16:13:56.722Z,9.10
2022-12-08T16:17:27.317Z,8.00
2022-12-08T16:18:59.374Z,10.20
2022-12-08T16:22:56.720Z,10.20
2022-12-08T16:24:36.913Z,10.40
2022-12-08T16:27:21.921Z,9.10
2022-12-08T16:28:45.116Z,8.80
2022-12-08T16:30:20.534Z,7.90
2022-12-08T16:31:52.651Z,8.90
2022-12-08T16:33:35.571Z,8.90
2022-12-08T16:35:08.307Z,8.70
2022-12-08T16:36:40.292Z,9.20
2022-12-08T16:38:17.258Z,9.80
2022-12-08T16:40:05.705Z,9.80
2022-12-08T16:41:56.777Z,9.90
2022-12-08T16:43:28.888Z,11.90
2022-12-08T16:45:23.955Z,10.40
2022-12-08T16:46:55.933Z,11.60
2022-12-08T16:48:28.487Z,11.20
2022-12-08T16:50:00.334Z,8.70
2022-12-08T16:51:32.210Z,9.90
2022-12-08T16:53:09.308Z,10.70
2022-12-08T16:54:44.422Z,10.70
2022-12-08T16:56:33.241Z,9.00
2022-12-08T16:58:06.216Z,11.20
2022-12-08T16:59:39.334Z,11.60
2022-12-08T17:01:17.761Z,12.10
2022-12-08T17:02:50.873Z,11.10
2022-12-08T17:04:31.527Z,11.20
2022-12-08T17:06:11.442Z,11.20
2022-12-08T17:25:05.014Z,8.10
2022-12-08T17:26:37.066Z,9.80
2022-12-08T17:28:09.132Z,9.60
2022-12-08T17:29:40.987Z,9.50
2022-12-08T17:31:15.357Z,9.90
2022-12-08T17:32:50.800Z,11.00
2022-12-08T17:34:22.796Z,9.50
2022-12-08T17:35:55.863Z,9.00
2022-12-08T17:37:27.832Z,8.90
2022-12-08T17:39:01.792Z,9.80
2022-12-08T17:40:33.665Z,12.30
2022-12-08T17:42:06.954Z,13.10
2022-12-08T17:43:39.140Z,11.40
2022-12-08T17:45:11.591Z,12.10
2022-12-08T17:46:50.694Z,12.20
2022-12-08T17:48:29.032Z,12.40
2022-12-08T17:50:00.972Z,11.80
2022-12-08T17:51:32.878Z,12.20
2022-12-08T17:53:06.093Z,10.00
2022-12-08T17:54:39.583Z,10.50
2022-12-08T17:56:20.066Z,11.20
2022-12-08T17:57:53.317Z,9.50
2022-12-08T17:59:28.383Z,8.90
2022-12-08T18:01:16.475Z,10.00
2022-12-08T18:02:48.769Z,11.00
2022-12-08T18:04:23.297Z,10.50
2022-12-08T18:05:57.720Z,9.50
2022-12-08T18:07:31.494Z,12.60
2022-12-08T18:09:06.929Z,13.30
2022-12-08T18:10:39.921Z,10.90
2022-12-08T18:12:11.791Z,11.00
2022-12-08T18:13:44.769Z,12.80
2022-12-08T18:15:19.665Z,12.60
2022-12-08T18:16:51.756Z,11.70
2022-12-08T18:18:26.594Z,13.60
2022-12-08T18:19:58.851Z,13.00
2022-12-08T18:21:35.098Z,10.90
2022-12-08T18:23:07.441Z,11.80
2022-12-08T18:24:41.623Z,10.80
2022-12-08T18:26:15.964Z,11.80
2022-12-08T18:55:11.606Z,16.20
2022-12-08T18:56:40.968Z,15.20
2022-12-08T18:58:15.098Z,11.80
2022-12-08T18:59:47.075Z,14.50
2022-12-08T19:01:20.004Z,14.60
2022-12-08T19:02:52.080Z,14.90
2022-12-08T19:04:28.849Z,14.30
2022-12-08T19:06:04.717Z,15.10
2022-12-08T19:07:38.705Z,12.10
2022-12-08T19:09:14.762Z,13.30
2022-12-08T19:10:46.592Z,12.70
2022-12-08T19:12:18.565Z,13.00
2022-12-08T19:13:51.750Z,12.60
2022-12-08T19:15:24.598Z,11.40
2022-12-08T19:16:58.382Z,13.10
2022-12-08T19:18:30.980Z,13.50
2022-12-08T19:20:04.632Z,12.50
2022-12-08T19:21:44.587Z,11.80
2022-12-08T19:23:18.544Z,12.80
2022-12-08T19:24:50.543Z,14.30
2022-12-08T19:26:23.083Z,12.40
2022-12-08T19:35:39.768Z,10.70
2022-12-08T19:37:12.954Z,13.40
2022-12-08T19:39:03.916Z,13.80
2022-12-08T19:40:54.673Z,11.50
2022-12-08T19:42:46.067Z,15.40
2022-12-08T19:44:47.552Z,12.30
2022-12-08T19:46:19.837Z,13.10
2022-12-08T19:47:52.305Z,12.90
2022-12-08T20:12:14.540Z,17.90
2022-12-08T20:27:29.223Z,14.90
2022-12-08T20:29:01.328Z,13.70
2022-12-08T20:30:34.187Z,13.70
2022-12-08T20:39:48.398Z,13.30
2022-12-08T20:41:23.709Z,13.30
2022-12-08T20:42:55.755Z,11.20
2022-12-08T20:45:37.838Z,14.40
2022-12-08T20:47:10.230Z,12.90
2022-12-08T20:48:44.745Z,12.70
2022-12-08T20:50:16.904Z,14.10
2022-12-08T20:51:49.327Z,12.90
2022-12-08T20:53:21.274Z,13.20
2022-12-08T20:54:53.265Z,14.90
2022-12-08T20:56:26.415Z,14.60
2022-12-08T20:57:59.104Z,14.40
2022-12-08T20:59:31.569Z,17.20
2022-12-08T21:01:13.785Z,16.40
2022-12-08T21:02:50.879Z,17.00
2022-12-08T21:04:27.594Z,16.20
2022-12-08T21:07:18.105Z,15.70
2022-12-08T21:08:51.185Z,15.40
2022-12-08T21:10:23.471Z,12.90
2022-12-08T21:11:56.106Z,14.30
2022-12-08T21:13:28.200Z,13.10
2022-12-08T21:15:00.319Z,15.80
2022-12-08T21:16:34.968Z,17.40
2022-12-08T21:18:07.079Z,16.20
2022-12-08T21:33:12.222Z,13.20
2022-12-08T21:34:46.925Z,12.20
2022-12-08T21:36:21.762Z,11.20
2022-12-08T21:37:57.171Z,13.80
2022-12-08T21:39:29.200Z,12.20
2022-12-08T21:41:08.234Z,12.80
2022-12-08T21:42:46.515Z,13.80
2022-12-08T21:44:19.164Z,14.10
2022-12-08T21:45:53.677Z,14.90
2022-12-08T21:47:25.676Z,13.80
2022-12-08T21:48:57.851Z,14.50
2022-12-08T21:50:29.759Z,14.90
2022-12-08T21:52:01.930Z,14.90
2022-12-08T21:53:37.079Z,14.60
2022-12-08T21:55:12.557Z,15.00
2022-12-08T21:56:46.592Z,14.80
2022-12-08T21:58:18.527Z,13.70
2022-12-08T21:59:51.205Z,14.90
2022-12-08T22:01:23.234Z,13.60
2022-12-08T22:02:55.813Z,12.60
2022-12-08T22:04:29.011Z,13.30
2022-12-08T22:06:11.965Z,11.90
2022-12-08T22:07:45.155Z,12.00
2022-12-08T22:09:19.386Z,12.40
2022-12-08T22:10:51.467Z,11.60
2022-12-08T22:12:23.587Z,12.00
2022-12-08T22:14:02.310Z,11.60
2022-12-08T22:15:36.035Z,12.20
2022-12-08T22:17:11.341Z,12.20
2022-12-08T22:18:43.495Z,12.70
2022-12-08T22:20:16.401Z,11.60
2022-12-08T22:21:48.504Z,11.30
2022-12-08T22:23:21.718Z,12.30
2022-12-08T22:24:54.292Z,12.00
2022-12-08T22:26:26.349Z,14.10
2022-12-08T22:27:58.224Z,10.50
2022-12-08T22:29:30.403Z,11.20
2022-12-08T22:31:12.957Z,12.50
2022-12-08T22:32:45.413Z,11.40
2022-12-08T22:34:17.258Z,11.70
2022-12-08T22:36:08.159Z,12.20
2022-12-08T22:37:42.436Z,12.30
2022-12-08T22:39:14.880Z,11.00
2022-12-08T22:40:47.082Z,7.30
2022-12-08T22:42:19.046Z,11.50
2022-12-08T22:43:51.395Z,13.30
2022-12-08T22:45:23.290Z,12.70
2022-12-08T22:46:55.222Z,13.10
2022-12-08T22:48:28.044Z,13.80
2022-12-08T22:50:00.401Z,13.80
2022-12-08T22:51:32.354Z,14.30
2022-12-08T22:53:06.821Z,13.30
2022-12-08T22:54:38.561Z,13.50
2022-12-08T22:56:17.678Z,12.90
2022-12-08T22:57:49.783Z,12.20
2022-12-08T22:59:21.607Z,12.40
2022-12-08T23:00:53.535Z,10.40
2022-12-08T23:02:26.771Z,10.30
2022-12-08T23:04:00.292Z,10.90
2022-12-08T23:05:35.893Z,11.80
2022-12-08T23:07:07.924Z,10.50
2022-12-08T23:08:40.730Z,11.00
2022-12-08T23:10:12.900Z,12.20
2022-12-08T23:11:45.482Z,12.10
2022-12-08T23:13:18.616Z,10.30
2022-12-08T23:14:50.892Z,12.50
2022-12-08T23:16:23.346Z,11.20
2022-12-08T23:17:55.439Z,11.10
2022-12-08T23:19:28.766Z,12.30
2022-12-08T23:21:10.640Z,12.50
2022-12-08T23:22:42.481Z,11.90
2022-12-08T23:24:20.691Z,11.30
2022-12-08T23:25:52.546Z,12.80
2022-12-08T23:27:24.534Z,8.70
2022-12-08T23:28:57.755Z,11.30
2022-12-08T23:30:29.826Z,10.80
2022-12-08T23:32:02.978Z,12.20
2022-12-08T23:33:36.260Z,10.30
2022-12-08T23:35:08.996Z,10.50
2022-12-08T23:36:42.862Z,11.10
2022-12-08T23:38:14.746Z,10.90
2022-12-08T23:39:46.539Z,11.40
2022-12-08T23:41:18.471Z,11.80
2022-12-08T23:42:50.347Z,10.30
2022-12-08T23:44:22.678Z,13.20
2022-12-08T23:45:55.697Z,11.10
2022-12-08T23:47:27.610Z,11.30
2022-12-08T23:48:59.571Z,11.00
2022-12-08T23:50:31.536Z,12.30
2022-12-08T23:52:05.327Z,12.20
2022-12-08T23:53:37.785Z,11.90
2022-12-08T23:55:16.035Z,11.20
2022-12-08T23:56:47.977Z,12.80
2022-12-08T23:58:19.832Z,11.00
2022-12-08T23:59:51.626Z,11.80
